Nearby METAR Reports

 

KLOT - Romeoville/Chi, Illinois, USA
Distance from station: N 3mi, 5km
Updated: Thu, 23-Mar-2017 6:55pm CDT
Overcast
Overcast
 Wind from SSE
Wind: SSE 13 mph , 20 km/h
Temperature: 45°F , 7°C
Wind Chill: 39°F , 4°C
Dew Point: 37°F , 3°C
Humidity: 76%
Barometer: 30.07 inHg , 1018.3 hPa
Clouds: Overcast
Visibility: 10 miles , 16 km
Cloud details: Overcast 3100 ft
2017/03/23 23:55 KLOT 232355Z AUTO 15011KT 10SM OVC031 07/03 A3007 RMK AO2 LTG DSNT W AND NW T00700025 10095 20063
KJOT - Joliet, Illinois, USA
Distance from station: WSW 5mi, 7km
Updated: Thu, 23-Mar-2017 6:55pm CDT
Overcast
Overcast
 Wind from SE
Wind: SE 7 mph , 11 km/h
Temperature: 46°F , 8°C
Wind Chill: 42°F , 6°C
Dew Point: 34°F , 1°C
Humidity: 62%
Barometer: 30.08 inHg , 1018.6 hPa
Clouds: Overcast
Visibility: 10 miles , 16 km
Cloud details: Overcast 3200 ft
2017/03/23 23:55 KJOT 232355Z AUTO 14006KT 10SM OVC032 08/01 A3008 RMK AO2 LTG DSNT W P0002 60002 T00810009 10106 20072
 
KC09 - Morris-Washburn, Illinois, USA
Distance from station: WSW 18mi, 29km
Updated: Thu, 23-Mar-2017 6:55pm CDT
Overcast
Overcast
 Wind from SSE
Wind: SSE 16 mph , 26 km/h, Gust: 20 mph , 31 km/h
Temperature: 46°F , 8°C
Wind Chill: 39°F , 4°C
Dew Point: 32°F , 0°C
Humidity: 57%
Barometer: 30.05 inHg , 1017.6 hPa
Clouds: Overcast
Visibility: 10 miles , 16 km
Cloud details: Mostly cloudy 3500 ft
Overcast 4100 ft
2017/03/23 23:55 KC09 232355Z AUTO 15014G17KT 10SM BKN035 OVC041 08/00 A3005 RMK AO2 LTG DSNT NW 60001 T00761002 10100 20065
KARR - Chicago/Aurora, Illinois, USA
Distance from station: NW 24mi, 39km
Updated: Thu, 23-Mar-2017 6:59pm CDT
Light thunderstorm, Rain, Overcast
Light thunderstorm, Rain, Overcast
 Wind from SE
Wind: SE 14 mph , 22 km/h, Gust: 23 mph , 37 km/h
Temperature: 46°F , 8°C
Wind Chill: 40°F , 4°C
Dew Point: 30°F , -1°C
Humidity: 53%
Barometer: 30.05 inHg , 1017.6 hPa
Summary: Light thunderstorm, Rain
Clouds: Overcast
Visibility: 10 miles , 16 km
Cloud details: Overcast 3600 ft
2017/03/23 23:59 KARR 232359Z 14012G20KT 10SM -TSRA OVC036 08/M01 A3005 RMK AO2 LTG DSNT N AND NW RAB55 TSB53 P0000 T00831006
 
KMDW - Chicago, Illinois, USA
Distance from station: NE 25mi, 39km
Updated: Thu, 23-Mar-2017 6:53pm CDT
Overcast
Overcast
 Wind from S
Wind: S 16 mph , 26 km/h, Gust: 24 mph , 39 km/h
Temperature: 50°F , 10°C
Wind Chill: 44°F , 7°C
Dew Point: 27°F , -3°C
Humidity: 40%
Barometer: 30.09 inHg , 1019 hPa
Clouds: Overcast
Visibility: 10 miles , 16 km
Cloud details: Overcast 3500 ft
2017/03/23 23:53 KMDW 232353Z 17014G21KT 10SM OVC035 10/M03 A3009 RMK AO2 SLP195 T01001033 10106 20078 56034
KDPA - Chicago/Dupage, Illinois, USA
Distance from station: NNW 26mi, 42km
Updated: Thu, 23-Mar-2017 6:52pm CDT
Light rain, Overcast
Light rain, Overcast
 Wind from SSE
Wind: SSE 22 mph , 35 km/h, Gust: 30 mph , 48 km/h
Temperature: 48°F , 9°C
Wind Chill: 41°F , 5°C
Dew Point: 28°F , -2°C
Humidity: 46%
Barometer: 30.04 inHg , 1017.3 hPa
Summary: Light rain
Clouds: Overcast
Visibility: 10 miles , 16 km
Cloud details: Overcast 3200 ft
2017/03/23 23:52 KDPA 232352Z 16019G26KT 10SM -RA OVC032 09/M02 A3004 RMK AO2 PK WND 16026/2352 LTG DSNT W AND NW RAB51 SLP176 P0000 60000 T00891022 10100 20072 58040
 
KIGQ - Chicago/Lansing, Illinois, USA
Distance from station: E 30mi, 48km
Updated: Thu, 23-Mar-2017 6:55pm CDT
Rain, Overcast
Rain, Overcast
 Wind from S
Wind: S 13 mph , 20 km/h
Temperature: 46°F , 8°C
Wind Chill: 40°F , 4°C
Dew Point: 34°F , 1°C
Humidity: 62%
Barometer: 30.11 inHg , 1019.6 hPa
Summary: Rain
Clouds: Overcast
Visibility: 10 miles , 16 km
Cloud details: Overcast 3400 ft
2017/03/23 23:55 KIGQ 232355Z AUTO 17011KT 10SM RA OVC034 08/01 A3011 RMK AO2 T00840010 10095 20070
KORD - Chicago O'hare, Illinois, USA
Distance from station: NNE 31mi, 50km
Updated: Thu, 23-Mar-2017 6:51pm CDT
Overcast
Overcast
 Wind from SSE
Wind: SSE 20 mph , 31 km/h, Gust: 28 mph , 44 km/h
Temperature: 50°F , 10°C
Wind Chill: 44°F , 7°C
Dew Point: 27°F , -3°C
Humidity: 40%
Barometer: 30.06 inHg , 1017.9 hPa
Clouds: Overcast
Visibility: 10 miles , 16 km
Cloud details: Overcast 3300 ft
2017/03/23 23:51 KORD 232351Z 16017G24KT 10SM OVC033 10/M03 A3006 RMK AO2 PRESFR SLP182 T01001033 10100 20083 58040
 
KGYY - Gary Regional, Indiana, USA
Distance from station: E 36mi, 58km
Updated: Thu, 23-Mar-2017 6:45pm CDT
Overcast
Overcast
 Wind from SSE
Wind: SSE 15 mph , 24 km/h
Temperature: 50°F , 10°C
Wind Chill: 45°F , 7°C
Dew Point: 25°F , -4°C
Humidity: 37%
Barometer: 30.11 inHg , 1019.6 hPa
Clouds: Overcast
Visibility: 15 miles , 24 km
Cloud details: Overcast 3500 ft
2017/03/23 23:45 KGYY 232345Z 15013KT 15SM OVC035 10/M04 A3011
KIKK - Kankakee, Illinois, USA
Distance from station: SSE 36mi, 58km
Updated: Thu, 23-Mar-2017 6:55pm CDT
Overcast
Overcast
 Wind from SE
Wind: SE 12 mph , 19 km/h
Temperature: 50°F , 10°C
Wind Chill: 45°F , 7°C
Dew Point: 27°F , -3°C
Humidity: 40%
Barometer: 30.10 inHg , 1019.3 hPa
Clouds: Overcast
Visibility: 10 miles , 16 km
Cloud details: Partly cloudy 3000 ft
Overcast 3500 ft
2017/03/23 23:55 KIKK 232355Z AUTO 14010KT 10SM SCT030 OVC035 10/M03 A3010 RMK AO2 T00951026 10117 20090
 
KDKB - De Kalb, Illinois, USA
Distance from station: NW 40mi, 65km
Updated: Thu, 23-Mar-2017 6:55pm CDT
Nearby thunderstorm, Overcast
Nearby thunderstorm, Overcast
 Wind from SSE
Wind: SSE 23 mph , 37 km/h, Gust: 29 mph , 46 km/h
Temperature: 45°F , 7°C
Wind Chill: 36°F , 2°C
Dew Point: 28°F , -2°C
Humidity: 53%
Barometer: 30.05 inHg , 1017.6 hPa
Summary: Nearby Thunderstorm
Clouds: Overcast
Visibility: 10 miles , 16 km
Cloud details: Partly cloudy 2300 ft
Partly cloudy 3000 ft
Overcast 3900 ft
2017/03/23 23:55 KDKB 232355Z AUTO 15020G25KT 10SM VCTS SCT023 SCT030 OVC039 07/M02 A3005 RMK AO2 LTG DSNT SE W AND NW T00721016 10086 20057
KPWK - Palwaukee, Illinois, USA
Distance from station: NNE 41mi, 65km
Updated: Thu, 23-Mar-2017 6:52pm CDT
Overcast
Overcast
 Wind from SSE
Wind: SSE 20 mph , 31 km/h
Temperature: 48°F , 9°C
Wind Chill: 41°F , 5°C
Dew Point: 25°F , -4°C
Humidity: 40%
Barometer: 30.05 inHg , 1017.6 hPa
Clouds: Overcast
Visibility: 10 miles , 16 km
Cloud details: Overcast 3500 ft
2017/03/23 23:52 KPWK 232352Z 16017KT 10SM OVC035 09/M04 A3005 RMK AO2 PRESFR SLP182 T00891039 10089 20072 58044